createdAt,value
2018-06-27T00:00:03.485Z,3.10
2018-06-27T00:02:31.615Z,3.00
2018-06-27T00:04:59.805Z,3.17
2018-06-27T00:07:28.152Z,2.93
2018-06-27T00:09:56.291Z,3.40
2018-06-27T00:12:24.464Z,3.30
2018-06-27T00:14:52.589Z,2.93
2018-06-27T00:17:20.679Z,3.40
2018-06-27T00:19:48.806Z,2.90
2018-06-27T00:22:16.874Z,3.27
2018-06-27T00:24:44.935Z,3.40
2018-06-27T00:27:12.991Z,3.00
2018-06-27T00:29:41.066Z,3.13
2018-06-27T00:32:09.321Z,3.03
2018-06-27T00:34:37.450Z,2.80
2018-06-27T00:37:05.538Z,3.10
2018-06-27T00:39:33.606Z,3.63
2018-06-27T00:42:01.702Z,3.20
2018-06-27T00:44:29.786Z,3.17
2018-06-27T00:46:57.855Z,3.33
2018-06-27T00:49:25.903Z,3.37
2018-06-27T00:51:54.015Z,3.50
2018-06-27T00:54:22.110Z,3.37
2018-06-27T00:56:50.205Z,3.23
2018-06-27T00:59:18.077Z,3.27
2018-06-27T01:01:46.198Z,3.30
2018-06-27T01:04:14.281Z,3.27
2018-06-27T01:06:42.370Z,3.43
2018-06-27T01:09:11.031Z,3.47
2018-06-27T01:11:39.368Z,3.77
2018-06-27T01:14:07.506Z,3.43
2018-06-27T01:16:35.559Z,3.20
2018-06-27T01:19:03.718Z,3.70
2018-06-27T01:21:31.801Z,3.30
2018-06-27T01:23:59.870Z,3.40
2018-06-27T01:26:27.929Z,3.90
2018-06-27T01:28:56.074Z,3.33
2018-06-27T01:31:24.289Z,3.43
2018-06-27T01:33:52.358Z,3.57
2018-06-27T01:36:20.442Z,3.30
2018-06-27T01:38:48.503Z,3.37
2018-06-27T01:41:16.575Z,3.00
2018-06-27T01:43:44.654Z,3.50
2018-06-27T01:46:12.735Z,3.20
2018-06-27T01:48:40.816Z,3.07
2018-06-27T01:51:08.879Z,3.67
2018-06-27T01:53:38.036Z,3.60
2018-06-27T01:56:07.569Z,3.30
2018-06-27T01:58:35.693Z,3.50
2018-06-27T02:01:03.767Z,3.87
2018-06-27T02:03:31.856Z,3.40
2018-06-27T02:05:59.932Z,3.63
2018-06-27T02:08:28.035Z,3.40
2018-06-27T02:10:56.176Z,3.53
2018-06-27T02:13:24.105Z,3.60
2018-06-27T02:15:52.174Z,3.97
2018-06-27T02:18:20.283Z,3.50
2018-06-27T02:20:48.427Z,3.30
2018-06-27T02:23:16.553Z,3.30
2018-06-27T02:25:44.665Z,3.40
2018-06-27T02:28:12.747Z,3.83
2018-06-27T02:30:40.831Z,4.00
2018-06-27T02:33:08.940Z,3.53
2018-06-27T02:35:37.006Z,3.87
2018-06-27T02:38:05.111Z,4.07
2018-06-27T02:40:33.187Z,4.13
2018-06-27T02:43:01.275Z,4.20
2018-06-27T02:45:29.350Z,3.50
2018-06-27T02:47:57.394Z,3.80
2018-06-27T02:50:25.497Z,3.10
2018-06-27T02:52:53.572Z,3.60
2018-06-27T02:55:21.693Z,3.43
2018-06-27T02:57:49.803Z,3.70
2018-06-27T03:00:17.907Z,3.60
2018-06-27T03:02:46.978Z,3.77
2018-06-27T03:05:15.088Z,3.93
2018-06-27T03:07:43.610Z,3.60
2018-06-27T03:10:11.733Z,3.50
2018-06-27T03:12:39.954Z,4.07
2018-06-27T03:15:09.055Z,3.60
2018-06-27T03:17:37.162Z,3.30
2018-06-27T03:20:05.320Z,3.60
2018-06-27T03:22:33.421Z,3.70
2018-06-27T03:25:01.543Z,3.80
2018-06-27T03:27:29.628Z,3.97
2018-06-27T03:29:57.722Z,4.20
2018-06-27T03:32:25.783Z,3.67
2018-06-27T03:34:53.870Z,3.40
2018-06-27T03:37:22.095Z,3.40
2018-06-27T03:39:50.416Z,3.47
2018-06-27T03:42:18.603Z,3.77
2018-06-27T03:44:46.704Z,3.47
2018-06-27T03:47:14.792Z,3.43
2018-06-27T03:49:42.965Z,3.80
2018-06-27T03:52:11.067Z,3.40
2018-06-27T03:54:39.195Z,4.07
2018-06-27T03:57:07.355Z,4.33
2018-06-27T03:59:35.463Z,3.80
2018-06-27T04:02:03.551Z,3.63
2018-06-27T04:04:31.687Z,3.60
2018-06-27T04:06:59.853Z,4.00
2018-06-27T04:09:27.951Z,3.60
2018-06-27T04:11:56.027Z,3.53
2018-06-27T04:14:24.154Z,4.10
2018-06-27T04:16:52.402Z,3.53
2018-06-27T04:19:20.510Z,3.20
2018-06-27T04:21:48.613Z,3.13
2018-06-27T04:24:16.686Z,3.23
2018-06-27T04:26:44.749Z,3.60
2018-06-27T04:29:12.900Z,3.97
2018-06-27T04:31:41.010Z,4.00
2018-06-27T04:34:09.079Z,3.60
2018-06-27T04:36:37.146Z,3.43
2018-06-27T04:39:07.780Z,3.43
2018-06-27T04:41:35.996Z,3.50
2018-06-27T04:44:04.118Z,3.50
2018-06-27T04:46:32.266Z,3.40
2018-06-27T04:49:00.405Z,3.53
2018-06-27T04:51:28.507Z,3.43
2018-06-27T04:53:56.574Z,3.27
2018-06-27T04:56:24.753Z,3.17
2018-06-27T04:58:52.932Z,2.80
2018-06-27T05:01:21.085Z,2.97
2018-06-27T05:03:49.206Z,3.00
2018-06-27T05:06:17.374Z,3.37
2018-06-27T05:08:45.527Z,2.90
2018-06-27T05:11:13.626Z,3.37
2018-06-27T05:13:41.746Z,2.80
2018-06-27T05:16:09.835Z,3.17
2018-06-27T05:18:37.957Z,2.90
2018-06-27T05:21:06.095Z,2.80
2018-06-27T05:23:34.222Z,4.07
2018-06-27T05:26:02.435Z,3.07
2018-06-27T05:28:30.636Z,2.80
2018-06-27T05:30:58.767Z,2.83
2018-06-27T05:33:26.888Z,2.97
2018-06-27T05:35:54.997Z,2.40
2018-06-27T05:38:23.096Z,2.80
2018-06-27T05:40:51.195Z,2.67
2018-06-27T05:43:19.308Z,3.50
2018-06-27T05:45:47.426Z,2.67
2018-06-27T05:48:15.600Z,2.50
2018-06-27T05:50:43.692Z,2.73
2018-06-27T05:53:11.834Z,3.00
2018-06-27T05:55:39.926Z,2.70
2018-06-27T05:58:08.103Z,4.10
2018-06-27T06:00:36.163Z,2.37
2018-06-27T06:03:04.273Z,2.40
2018-06-27T06:05:32.421Z,2.20
2018-06-27T06:08:00.552Z,2.60
2018-06-27T06:10:28.666Z,2.40
2018-06-27T06:12:56.836Z,2.50
2018-06-27T06:15:24.926Z,2.30
2018-06-27T06:17:53.080Z,2.53
2018-06-27T06:20:21.253Z,3.03
2018-06-27T06:22:49.324Z,2.53
2018-06-27T06:25:17.436Z,2.60
2018-06-27T06:27:45.466Z,2.53
2018-06-27T06:30:13.603Z,2.60
2018-06-27T06:32:41.678Z,2.60
2018-06-27T06:35:09.775Z,2.90
2018-06-27T06:37:37.861Z,4.23
2018-06-27T06:40:06.032Z,2.77
2018-06-27T06:42:34.098Z,2.67
2018-06-27T06:45:02.185Z,2.37
2018-06-27T06:47:30.290Z,2.30
2018-06-27T06:49:58.242Z,2.23
2018-06-27T06:52:26.370Z,2.30
2018-06-27T06:54:54.510Z,2.40
2018-06-27T06:57:22.623Z,2.53
2018-06-27T06:59:50.706Z,2.30
2018-06-27T07:02:18.799Z,2.37
2018-06-27T07:04:46.878Z,2.27
2018-06-27T07:07:14.974Z,2.10
2018-06-27T07:09:43.073Z,2.30
2018-06-27T07:12:11.173Z,2.37
2018-06-27T07:14:39.266Z,2.53
2018-06-27T07:17:07.350Z,2.30
2018-06-27T07:19:35.438Z,2.40
2018-06-27T07:22:03.550Z,2.20
2018-06-27T07:24:31.631Z,2.10
2018-06-27T07:26:59.715Z,2.03
2018-06-27T07:29:27.816Z,2.40
2018-06-27T07:31:55.871Z,2.60
2018-06-27T07:34:23.957Z,2.00
2018-06-27T07:36:52.060Z,2.00
2018-06-27T07:39:20.165Z,2.37
2018-06-27T07:41:48.258Z,2.17
2018-06-27T07:44:16.385Z,2.00
2018-06-27T07:46:44.498Z,2.23
2018-06-27T07:49:12.605Z,1.70
2018-06-27T07:51:40.539Z,1.77
2018-06-27T07:54:08.662Z,1.50
2018-06-27T07:56:36.763Z,1.60
2018-06-27T07:59:04.859Z,1.50
2018-06-27T08:01:32.962Z,1.50
2018-06-27T08:04:01.058Z,3.23
2018-06-27T08:06:36.496Z,2.00
2018-06-27T08:09:07.747Z,1.60
2018-06-27T08:11:35.889Z,1.70
2018-06-27T08:14:04.201Z,1.77
2018-06-27T08:16:32.340Z,1.60
2018-06-27T08:19:00.463Z,1.60
2018-06-27T08:21:28.566Z,1.50
2018-06-27T08:23:56.649Z,1.60
2018-06-27T08:26:24.831Z,1.57
2018-06-27T08:28:52.827Z,1.40
2018-06-27T08:31:20.957Z,1.60
2018-06-27T08:33:49.044Z,1.50
2018-06-27T08:36:17.161Z,1.60
2018-06-27T08:38:45.066Z,1.40
2018-06-27T08:41:13.175Z,1.20
2018-06-27T08:43:41.305Z,1.30
2018-06-27T08:46:09.309Z,1.40
2018-06-27T08:48:37.470Z,1.33
2018-06-27T08:51:05.573Z,1.53
2018-06-27T08:53:33.678Z,1.20
2018-06-27T08:56:01.866Z,1.53
2018-06-27T08:58:29.986Z,1.40
2018-06-27T09:00:58.098Z,1.60
2018-06-27T09:03:26.035Z,1.57
2018-06-27T09:05:54.364Z,1.50
2018-06-27T09:08:22.472Z,1.70
2018-06-27T09:10:50.800Z,1.40
2018-06-27T09:13:18.883Z,1.70
2018-06-27T09:15:46.977Z,1.67
2018-06-27T09:18:15.124Z,1.43
2018-06-27T09:20:43.255Z,1.57
2018-06-27T09:23:11.360Z,1.37
2018-06-27T09:25:39.450Z,1.33
2018-06-27T09:28:07.550Z,1.50
2018-06-27T09:30:35.638Z,1.40
2018-06-27T09:33:03.769Z,1.60
2018-06-27T09:35:31.864Z,1.47
2018-06-27T09:37:59.968Z,1.40
2018-06-27T09:40:28.131Z,1.67
2018-06-27T09:42:56.259Z,1.20
2018-06-27T09:45:24.371Z,1.63
2018-06-27T09:47:52.604Z,2.00
2018-06-27T09:50:20.725Z,1.70
2018-06-27T09:52:48.908Z,1.73
2018-06-27T09:55:17.003Z,1.60
2018-06-27T09:57:45.093Z,1.90
2018-06-27T10:00:18.824Z,1.70
2018-06-27T10:02:46.913Z,1.67
2018-06-27T10:05:15.134Z,1.83
2018-06-27T10:07:43.225Z,1.67
2018-06-27T10:10:11.384Z,1.60
2018-06-27T10:12:39.551Z,1.60
2018-06-27T10:15:07.815Z,1.50
2018-06-27T10:17:35.916Z,1.90
2018-06-27T10:20:04.025Z,1.70
2018-06-27T10:22:31.984Z,2.00
2018-06-27T10:25:00.057Z,2.00
2018-06-27T10:27:28.175Z,1.50
2018-06-27T10:29:56.296Z,2.20
2018-06-27T10:32:24.443Z,1.30
2018-06-27T10:34:52.594Z,1.50
2018-06-27T10:37:20.698Z,1.50
2018-06-27T10:39:48.866Z,1.53
2018-06-27T10:42:17.122Z,1.73
2018-06-27T10:44:45.316Z,1.60
2018-06-27T10:47:13.464Z,1.70
2018-06-27T10:49:41.591Z,1.80
2018-06-27T10:52:09.718Z,2.10
2018-06-27T10:54:43.435Z,1.60
2018-06-27T10:57:11.576Z,1.90
2018-06-27T10:59:39.705Z,1.90
2018-06-27T11:02:07.794Z,1.60
2018-06-27T11:04:35.993Z,1.80
2018-06-27T11:07:04.121Z,1.70
2018-06-27T11:09:32.205Z,1.80
2018-06-27T11:12:00.419Z,1.57
2018-06-27T11:14:28.618Z,1.77
2018-06-27T11:16:57.001Z,1.90
2018-06-27T11:19:25.098Z,1.70
2018-06-27T11:21:53.191Z,1.57
2018-06-27T11:24:21.585Z,1.70
2018-06-27T11:26:49.743Z,2.00
2018-06-27T11:29:17.805Z,2.03
2018-06-27T11:31:45.960Z,1.60
2018-06-27T11:34:14.138Z,1.93
2018-06-27T11:36:42.294Z,1.70
2018-06-27T11:39:12.099Z,1.50
2018-06-27T11:41:40.336Z,1.70
2018-06-27T11:44:08.530Z,1.70
2018-06-27T11:46:37.259Z,1.80
2018-06-27T11:49:06.027Z,1.80
2018-06-27T11:51:34.338Z,1.83
2018-06-27T11:54:02.707Z,1.90
2018-06-27T11:56:31.303Z,1.70
2018-06-27T11:58:59.371Z,1.70
2018-06-27T12:01:27.467Z,2.00
2018-06-27T12:03:55.663Z,1.70
2018-06-27T12:08:59.869Z,1.70
2018-06-27T12:11:27.995Z,1.90
2018-06-27T12:13:56.114Z,2.20
2018-06-27T12:16:24.186Z,1.80
2018-06-27T12:18:52.269Z,2.00
2018-06-27T12:21:20.386Z,2.00
2018-06-27T12:23:48.492Z,1.80
2018-06-27T12:26:16.570Z,2.27
2018-06-27T12:28:44.896Z,1.50
2018-06-27T12:31:12.974Z,1.87
2018-06-27T12:33:41.047Z,1.90
2018-06-27T12:36:09.214Z,1.60
2018-06-27T12:38:37.303Z,2.80
2018-06-27T12:41:05.452Z,1.80
2018-06-27T12:43:33.611Z,1.93
2018-06-27T12:46:01.696Z,3.77
2018-06-27T12:48:29.824Z,2.80
2018-06-27T12:50:57.916Z,2.10
2018-06-27T12:53:26.108Z,3.00
2018-06-27T12:55:54.456Z,1.70
2018-06-27T12:58:22.630Z,1.70
2018-06-27T13:00:51.424Z,1.57
2018-06-27T13:03:19.521Z,1.57
2018-06-27T13:05:47.733Z,3.07
2018-06-27T13:08:15.692Z,2.63
2018-06-27T13:10:43.860Z,1.80
2018-06-27T13:13:12.011Z,2.00
2018-06-27T13:15:40.107Z,1.20
2018-06-27T13:18:08.274Z,1.50
2018-06-27T13:20:36.352Z,1.57
2018-06-27T13:23:04.481Z,1.97
2018-06-27T13:25:32.575Z,1.80
2018-06-27T13:28:00.764Z,2.20
2018-06-27T13:30:28.878Z,1.70
2018-06-27T13:32:56.990Z,1.50
2018-06-27T13:35:25.141Z,1.57
2018-06-27T13:37:53.299Z,1.60
2018-06-27T13:40:21.426Z,1.63
2018-06-27T13:42:49.540Z,1.80
2018-06-27T13:45:22.898Z,1.73
2018-06-27T13:47:51.034Z,1.70
2018-06-27T13:50:19.348Z,2.20
2018-06-27T13:52:47.510Z,2.00
2018-06-27T13:55:15.591Z,1.80
2018-06-27T13:57:43.842Z,1.80
2018-06-27T14:00:12.104Z,1.90
2018-06-27T14:02:40.330Z,2.47
2018-06-27T14:05:09.118Z,1.90
2018-06-27T14:07:37.187Z,2.00
2018-06-27T14:10:05.478Z,1.90
2018-06-27T14:12:33.562Z,1.93
2018-06-27T14:15:01.666Z,2.00
2018-06-27T14:17:29.601Z,1.93
2018-06-27T14:19:57.737Z,1.80
2018-06-27T14:22:25.886Z,2.00
2018-06-27T14:24:53.998Z,1.73
2018-06-27T14:27:22.108Z,1.90
2018-06-27T14:29:50.275Z,1.60
2018-06-27T14:32:18.410Z,1.87
2018-06-27T14:34:46.582Z,1.70
2018-06-27T14:37:14.708Z,1.70
2018-06-27T14:39:42.824Z,1.83
2018-06-27T14:42:10.963Z,2.00
2018-06-27T14:44:39.222Z,1.90
2018-06-27T14:47:07.356Z,1.90
2018-06-27T14:49:35.571Z,1.93
2018-06-27T14:52:03.711Z,1.60
2018-06-27T14:54:31.844Z,2.20
2018-06-27T14:56:59.974Z,1.83
2018-06-27T14:59:28.163Z,2.00
2018-06-27T15:01:56.256Z,2.00
2018-06-27T15:04:24.485Z,1.90
2018-06-27T15:06:52.579Z,1.57
2018-06-27T15:09:20.707Z,1.97
2018-06-27T15:11:48.985Z,1.80
2018-06-27T15:14:17.134Z,1.90
2018-06-27T15:16:45.309Z,1.77
2018-06-27T15:19:13.458Z,1.77
2018-06-27T15:21:41.566Z,1.80
2018-06-27T15:24:09.659Z,1.90
2018-06-27T15:26:37.774Z,1.63
2018-06-27T15:29:05.880Z,1.60
2018-06-27T15:31:34.059Z,1.70
2018-06-27T15:34:02.146Z,1.60
2018-06-27T15:36:30.310Z,1.60
2018-06-27T15:38:58.438Z,1.90
2018-06-27T15:41:26.552Z,1.77
2018-06-27T15:43:54.707Z,1.80
2018-06-27T15:46:22.823Z,1.97
2018-06-27T15:48:50.975Z,1.70
2018-06-27T15:51:19.084Z,1.80
2018-06-27T15:53:47.172Z,2.00
2018-06-27T15:56:15.291Z,1.97
2018-06-27T15:58:43.358Z,1.93
2018-06-27T16:01:11.477Z,1.70
2018-06-27T16:03:39.609Z,2.03
2018-06-27T16:06:07.767Z,2.23
2018-06-27T16:08:35.950Z,2.07
2018-06-27T16:11:04.109Z,2.00
2018-06-27T16:13:32.424Z,2.20
2018-06-27T16:16:00.579Z,1.70
2018-06-27T16:18:28.742Z,2.07
2018-06-27T16:20:57.003Z,1.80
2018-06-27T16:23:25.321Z,1.73
2018-06-27T16:25:53.455Z,1.97
2018-06-27T16:28:21.586Z,1.80
2018-06-27T16:30:49.709Z,2.00
2018-06-27T16:33:17.865Z,2.00
2018-06-27T16:35:45.976Z,1.60
2018-06-27T16:38:16.095Z,2.03
2018-06-27T16:40:44.258Z,2.03
2018-06-27T16:43:12.403Z,2.20
2018-06-27T16:45:40.612Z,2.30
2018-06-27T16:48:08.782Z,2.23
2018-06-27T16:50:36.950Z,2.00
2018-06-27T16:53:05.204Z,2.07
2018-06-27T16:55:33.561Z,2.13
2018-06-27T16:58:01.755Z,1.77
2018-06-27T17:00:29.904Z,2.03
2018-06-27T17:02:58.050Z,2.10
2018-06-27T17:05:26.270Z,2.50
2018-06-27T17:07:54.347Z,1.80
2018-06-27T17:10:22.434Z,1.97
2018-06-27T17:12:50.621Z,2.23
2018-06-27T17:15:18.771Z,2.23
2018-06-27T17:17:46.882Z,2.27
2018-06-27T17:20:14.991Z,2.00
2018-06-27T17:22:43.088Z,2.30
2018-06-27T17:25:11.415Z,2.30
2018-06-27T17:27:39.461Z,2.10
2018-06-27T17:30:07.576Z,2.10
2018-06-27T17:32:35.687Z,2.03
2018-06-27T17:35:03.827Z,1.80
2018-06-27T17:37:31.948Z,1.50
2018-06-27T17:40:00.091Z,1.87
2018-06-27T17:42:28.173Z,1.77
2018-06-27T17:44:57.419Z,2.20
2018-06-27T17:47:25.541Z,2.00
2018-06-27T17:49:53.716Z,1.80
2018-06-27T17:52:21.853Z,1.90
2018-06-27T17:54:50.437Z,1.80
2018-06-27T17:57:18.352Z,2.10
2018-06-27T17:59:46.518Z,1.97
2018-06-27T18:02:14.679Z,2.10
2018-06-27T18:04:42.827Z,2.00
2018-06-27T18:07:10.968Z,2.20
2018-06-27T18:09:38.867Z,2.27
2018-06-27T18:12:07.075Z,2.53
2018-06-27T18:14:35.191Z,2.33
2018-06-27T18:17:03.293Z,1.97
2018-06-27T18:19:31.495Z,2.00
2018-06-27T18:21:59.634Z,2.30
2018-06-27T18:24:27.913Z,2.60
2018-06-27T18:26:56.007Z,2.00
2018-06-27T18:29:24.184Z,1.90
2018-06-27T18:31:52.359Z,2.20
2018-06-27T18:34:20.817Z,1.70
2018-06-27T18:36:48.796Z,1.90
2018-06-27T18:39:16.926Z,2.00
2018-06-27T18:41:45.055Z,1.90
2018-06-27T18:44:13.490Z,1.90
2018-06-27T18:46:41.643Z,1.83
2018-06-27T18:49:09.776Z,1.97
2018-06-27T18:51:37.956Z,1.90
2018-06-27T18:54:06.099Z,3.10
2018-06-27T18:56:34.281Z,2.00
2018-06-27T18:59:02.463Z,1.80
2018-06-27T19:01:30.647Z,1.90
2018-06-27T19:03:58.823Z,2.10
2018-06-27T19:06:26.911Z,2.03
2018-06-27T19:08:55.011Z,2.60
2018-06-27T19:11:23.175Z,2.10
2018-06-27T19:13:51.332Z,2.37
2018-06-27T19:16:19.526Z,2.80
2018-06-27T19:18:47.635Z,2.17
2018-06-27T19:21:15.730Z,2.40
2018-06-27T19:23:43.818Z,2.40
2018-06-27T19:26:11.968Z,2.60
2018-06-27T19:28:40.106Z,2.50
2018-06-27T19:31:08.239Z,2.30
2018-06-27T19:33:36.357Z,2.37
2018-06-27T19:36:04.821Z,2.20
2018-06-27T19:38:32.947Z,2.43
2018-06-27T19:41:01.292Z,2.10
2018-06-27T19:43:29.300Z,2.10
2018-06-27T19:45:57.227Z,2.33
2018-06-27T19:48:25.338Z,2.40
2018-06-27T19:50:53.479Z,2.40
2018-06-27T19:53:21.534Z,2.80
2018-06-27T19:55:49.650Z,2.90
2018-06-27T19:58:17.764Z,2.70
2018-06-27T20:00:45.859Z,2.37
2018-06-27T20:03:14.050Z,2.37
2018-06-27T20:05:42.928Z,2.57
2018-06-27T20:08:11.015Z,2.50
2018-06-27T20:10:39.293Z,2.73
2018-06-27T20:13:07.321Z,2.80
2018-06-27T20:15:35.594Z,2.57
2018-06-27T20:18:03.718Z,2.60
2018-06-27T20:20:31.894Z,2.60
2018-06-27T20:23:00.066Z,2.80
2018-06-27T20:25:28.589Z,2.90
2018-06-27T20:27:56.676Z,2.97
2018-06-27T20:30:24.803Z,2.70
2018-06-27T20:32:52.981Z,2.77
2018-06-27T20:35:21.089Z,2.77
2018-06-27T20:37:50.639Z,3.20
2018-06-27T20:40:18.821Z,3.67
2018-06-27T20:42:46.907Z,3.73
2018-06-27T20:45:15.042Z,2.83
2018-06-27T20:47:43.234Z,3.10
2018-06-27T20:50:11.344Z,3.10
2018-06-27T20:52:39.512Z,2.80
2018-06-27T20:55:07.670Z,3.03
2018-06-27T20:57:35.791Z,2.90
2018-06-27T21:00:03.863Z,2.93
2018-06-27T21:02:32.011Z,2.63
2018-06-27T21:05:00.104Z,2.67
2018-06-27T21:07:28.223Z,3.00
2018-06-27T21:09:56.300Z,2.90
2018-06-27T21:12:24.485Z,2.80
2018-06-27T21:14:52.563Z,3.10
2018-06-27T21:17:20.708Z,3.17
2018-06-27T21:19:48.884Z,3.00
2018-06-27T21:22:16.994Z,3.17
2018-06-27T21:24:45.080Z,3.50
2018-06-27T21:27:13.148Z,3.10
2018-06-27T21:29:41.270Z,3.00
2018-06-27T21:32:09.402Z,2.73
2018-06-27T21:34:37.572Z,2.80
2018-06-27T21:37:05.742Z,2.83
2018-06-27T21:39:33.826Z,2.57
2018-06-27T21:42:01.967Z,2.50
2018-06-27T21:44:30.111Z,2.90
2018-06-27T21:46:58.234Z,2.50
2018-06-27T21:49:26.340Z,3.33
2018-06-27T21:51:54.461Z,2.40
2018-06-27T21:54:22.566Z,2.70
2018-06-27T21:56:50.671Z,2.47
2018-06-27T21:59:18.808Z,2.77
2018-06-27T22:01:46.925Z,3.10
2018-06-27T22:04:15.043Z,3.33
2018-06-27T22:06:43.146Z,3.10
2018-06-27T22:09:12.281Z,2.40
2018-06-27T22:11:40.615Z,2.80
2018-06-27T22:14:08.962Z,2.60
2018-06-27T22:16:37.191Z,2.83
2018-06-27T22:19:05.336Z,2.73
2018-06-27T22:21:33.590Z,3.20
2018-06-27T22:24:02.068Z,2.90
2018-06-27T22:26:30.171Z,3.23
2018-06-27T22:28:58.350Z,2.90
2018-06-27T22:31:26.523Z,3.00
2018-06-27T22:33:54.684Z,3.07
2018-06-27T22:36:23.774Z,2.90
2018-06-27T22:38:52.050Z,2.67
2018-06-27T22:41:20.195Z,3.00
2018-06-27T22:43:48.411Z,3.10
2018-06-27T22:46:16.530Z,2.63
2018-06-27T22:48:44.665Z,2.70
2018-06-27T22:51:12.893Z,3.00
2018-06-27T22:53:41.025Z,2.93
2018-06-27T22:56:09.126Z,2.43
2018-06-27T22:58:37.329Z,2.90
2018-06-27T23:01:05.471Z,3.10
2018-06-27T23:03:33.556Z,3.13
2018-06-27T23:06:01.448Z,3.13
2018-06-27T23:08:29.594Z,2.87
2018-06-27T23:10:57.689Z,2.97
2018-06-27T23:13:25.778Z,3.00
2018-06-27T23:15:53.870Z,3.10
2018-06-27T23:18:21.941Z,3.17
2018-06-27T23:20:50.121Z,2.77
2018-06-27T23:23:18.229Z,3.33
2018-06-27T23:25:46.314Z,3.13
2018-06-27T23:28:14.413Z,3.10
2018-06-27T23:30:42.542Z,3.37
2018-06-27T23:33:10.638Z,3.13
2018-06-27T23:35:38.785Z,3.30
2018-06-27T23:38:06.891Z,3.53
2018-06-27T23:40:34.985Z,3.30
2018-06-27T23:43:03.116Z,3.33
2018-06-27T23:45:31.223Z,3.30
2018-06-27T23:47:59.360Z,3.63
2018-06-27T23:50:27.464Z,3.37
2018-06-27T23:52:55.575Z,3.13
2018-06-27T23:55:23.701Z,3.30
2018-06-27T23:57:51.794Z,3.30
